createdAt,value
2023-04-30T00:02:22.930Z,100.00
2023-04-30T00:04:55.804Z,100.00
2023-04-30T00:07:27.509Z,100.00
2023-04-30T00:09:58.596Z,100.00
2023-04-30T00:12:29.114Z,100.00
2023-04-30T00:14:59.597Z,100.00
2023-04-30T00:17:32.872Z,100.00
2023-04-30T00:20:05.479Z,100.00
2023-04-30T00:22:36.760Z,100.00
2023-04-30T00:25:12.255Z,100.00
2023-04-30T00:27:45.775Z,100.00
2023-04-30T00:30:17.723Z,100.00
2023-04-30T00:32:47.793Z,100.00
2023-04-30T00:35:17.697Z,100.00
2023-04-30T00:37:48.041Z,100.00
2023-04-30T00:40:34.278Z,100.00
2023-04-30T00:43:04.580Z,100.00
2023-04-30T00:45:33.591Z,100.00
2023-04-30T00:48:02.175Z,100.00
2023-04-30T00:50:32.278Z,100.00
2023-04-30T00:53:01.519Z,100.00
2023-04-30T00:55:30.445Z,100.00
2023-04-30T00:57:59.523Z,100.00
2023-04-30T01:00:28.519Z,100.00
2023-04-30T01:02:57.535Z,100.00
2023-04-30T01:05:26.443Z,100.00
2023-04-30T01:07:57.404Z,100.00
2023-04-30T01:10:30.565Z,100.00
2023-04-30T01:13:04.169Z,100.00
2023-04-30T01:15:37.395Z,100.00
2023-04-30T01:18:09.168Z,100.00
2023-04-30T01:20:40.606Z,100.00
2023-04-30T01:23:15.433Z,100.00
2023-04-30T01:25:46.390Z,100.00
2023-04-30T01:28:17.666Z,100.00
2023-04-30T01:30:46.533Z,100.00
2023-04-30T01:33:15.087Z,100.00
2023-04-30T01:36:02.514Z,100.00
2023-04-30T01:38:37.879Z,100.00
2023-04-30T01:41:10.642Z,100.00
2023-04-30T01:43:47.067Z,100.00
2023-04-30T01:46:20.353Z,100.00
2023-04-30T01:48:52.989Z,100.00
2023-04-30T01:51:25.394Z,100.00
2023-04-30T01:53:55.726Z,100.00
2023-04-30T01:56:28.533Z,100.00
2023-04-30T01:58:58.787Z,100.00
2023-04-30T02:01:28.251Z,100.00
2023-04-30T02:03:56.986Z,100.00
2023-04-30T02:06:28.597Z,100.00
2023-04-30T02:09:02.496Z,100.00
2023-04-30T02:11:31.526Z,100.00
2023-04-30T02:14:01.440Z,100.00
2023-04-30T02:16:29.787Z,100.00
2023-04-30T02:18:58.211Z,100.00
2023-04-30T02:21:38.352Z,100.00
2023-04-30T02:24:07.470Z,100.00
2023-04-30T02:26:36.057Z,100.00
2023-04-30T02:29:05.816Z,100.00
2023-04-30T02:31:34.352Z,100.00
2023-04-30T02:34:03.055Z,100.00
2023-04-30T02:36:36.349Z,100.00
2023-04-30T02:39:05.008Z,100.00
2023-04-30T02:41:33.688Z,100.00
2023-04-30T02:44:03.427Z,100.00
2023-04-30T02:46:33.172Z,100.00
2023-04-30T02:49:01.688Z,100.00
2023-04-30T02:51:30.148Z,100.00
2023-04-30T02:53:58.482Z,100.00
2023-04-30T02:56:26.999Z,100.00
2023-04-30T02:58:55.384Z,100.00
2023-04-30T03:01:23.746Z,100.00
2023-04-30T03:03:54.068Z,100.00
2023-04-30T03:06:22.689Z,100.00
2023-04-30T03:08:51.221Z,100.00
2023-04-30T03:11:19.671Z,100.00
2023-04-30T03:14:02.237Z,100.00
2023-04-30T03:16:31.256Z,100.00
2023-04-30T03:19:01.006Z,100.00
2023-04-30T03:21:30.002Z,100.00
2023-04-30T03:23:58.436Z,100.00
2023-04-30T03:26:27.473Z,100.00
2023-04-30T03:28:56.084Z,100.00
2023-04-30T03:31:24.676Z,100.00
2023-04-30T03:33:53.211Z,100.00
2023-04-30T03:36:23.048Z,100.00
2023-04-30T03:38:51.435Z,100.00
2023-04-30T03:41:19.938Z,100.00
2023-04-30T03:43:48.423Z,100.00
2023-04-30T03:46:16.932Z,100.00
2023-04-30T03:48:45.683Z,100.00
2023-04-30T03:51:14.332Z,100.00
2023-04-30T03:53:44.178Z,100.00
2023-04-30T03:56:14.065Z,100.00
2023-04-30T03:58:42.544Z,100.00
2023-04-30T04:01:11.085Z,100.00
2023-04-30T04:03:39.599Z,100.00
2023-04-30T04:06:08.419Z,100.00
2023-04-30T04:08:37.454Z,100.00
2023-04-30T04:11:07.216Z,100.00
2023-04-30T04:13:35.787Z,100.00
2023-04-30T04:16:04.215Z,100.00
2023-04-30T04:18:32.864Z,100.00
2023-04-30T04:21:01.536Z,100.00
2023-04-30T04:23:29.995Z,100.00
2023-04-30T04:25:58.498Z,100.00
2023-04-30T04:28:28.726Z,100.00
2023-04-30T04:30:57.370Z,100.00
2023-04-30T04:33:25.870Z,100.00
2023-04-30T04:35:54.165Z,100.00
2023-04-30T04:38:22.895Z,100.00
2023-04-30T04:40:54.732Z,100.00
2023-04-30T04:43:23.183Z,100.00
2023-04-30T04:45:53.431Z,100.00
2023-04-30T04:48:21.906Z,100.00
2023-04-30T04:50:50.570Z,100.00
2023-04-30T04:53:18.850Z,100.00
2023-04-30T04:55:47.210Z,100.00
2023-04-30T04:58:15.834Z,100.00
2023-04-30T05:00:45.207Z,100.00
2023-04-30T05:03:15.238Z,100.00
2023-04-30T05:05:44.223Z,100.00
2023-04-30T05:08:13.306Z,100.00
2023-04-30T05:10:41.695Z,100.00
2023-04-30T05:13:09.984Z,100.00
2023-04-30T05:15:39.047Z,100.00
2023-04-30T05:18:07.604Z,100.00
2023-04-30T05:20:37.399Z,100.00
2023-04-30T05:23:06.198Z,100.00
2023-04-30T05:25:34.574Z,100.00
2023-04-30T05:28:03.399Z,100.00
2023-04-30T05:30:31.820Z,100.00
2023-04-30T05:33:00.416Z,100.00
2023-04-30T05:35:28.883Z,100.00
2023-04-30T05:37:58.886Z,100.00
2023-04-30T05:40:27.580Z,100.00
2023-04-30T05:42:56.432Z,100.00
2023-04-30T05:45:24.945Z,100.00
2023-04-30T05:47:53.656Z,100.00
2023-04-30T05:50:22.207Z,100.00
2023-04-30T05:52:50.898Z,100.00
2023-04-30T05:55:20.691Z,100.00
2023-04-30T05:57:49.312Z,100.00
2023-04-30T06:00:17.956Z,100.00
2023-04-30T06:02:46.380Z,100.00
2023-04-30T06:05:16.289Z,99.40
2023-04-30T06:07:44.923Z,98.02
2023-04-30T06:10:13.661Z,97.48
2023-04-30T06:12:43.751Z,97.24
2023-04-30T06:15:12.289Z,96.38
2023-04-30T06:17:40.753Z,95.79
2023-04-30T06:20:23.324Z,94.87
2023-04-30T06:22:52.048Z,94.25
2023-04-30T06:25:21.763Z,94.69
2023-04-30T06:27:54.215Z,93.28
2023-04-30T06:30:22.943Z,92.90
2023-04-30T06:32:51.542Z,92.02
2023-04-30T06:35:19.996Z,91.66
2023-04-30T06:37:48.398Z,91.11
2023-04-30T06:40:16.826Z,90.27
2023-04-30T06:42:47.606Z,89.51
2023-04-30T06:45:17.750Z,89.54
2023-04-30T06:47:46.268Z,88.60
2023-04-30T06:50:15.639Z,87.99
2023-04-30T06:52:44.337Z,86.91
2023-04-30T06:55:12.646Z,86.72
2023-04-30T06:57:41.266Z,86.16
2023-04-30T07:00:09.855Z,85.85
2023-04-30T07:02:39.982Z,84.57
2023-04-30T07:05:09.155Z,84.85
2023-04-30T07:07:37.850Z,84.56
2023-04-30T07:10:06.945Z,83.14
2023-04-30T07:12:35.560Z,82.94
2023-04-30T07:15:04.195Z,83.56
2023-04-30T07:17:33.508Z,83.76
2023-04-30T07:20:04.633Z,83.19
2023-04-30T07:22:33.466Z,81.69
2023-04-30T07:25:02.020Z,80.75
2023-04-30T07:27:30.526Z,79.61
2023-04-30T07:29:58.974Z,80.07
2023-04-30T07:32:27.694Z,78.74
2023-04-30T07:34:56.064Z,78.17
2023-04-30T07:37:26.328Z,79.84
2023-04-30T07:39:55.200Z,77.88
2023-04-30T07:42:27.507Z,74.45
2023-04-30T07:44:56.628Z,70.13
2023-04-30T07:47:26.202Z,65.53
2023-04-30T07:49:55.173Z,62.43
2023-04-30T07:52:23.800Z,62.07
2023-04-30T07:54:54.685Z,58.79
2023-04-30T07:57:23.339Z,58.25
2023-04-30T07:59:53.188Z,56.54
2023-04-30T08:02:22.333Z,56.18
2023-04-30T08:04:50.950Z,52.49
2023-04-30T08:07:21.100Z,50.89
2023-04-30T08:09:49.499Z,49.10
2023-04-30T08:12:19.740Z,50.22
2023-04-30T08:14:48.622Z,46.02
2023-04-30T08:17:17.207Z,47.24
2023-04-30T08:19:45.849Z,47.46
2023-04-30T08:22:14.160Z,46.96
2023-04-30T08:24:43.070Z,48.74
2023-04-30T08:27:11.474Z,49.27
2023-04-30T08:29:41.537Z,46.83
2023-04-30T08:32:10.225Z,45.78
2023-04-30T08:34:40.581Z,41.55
2023-04-30T08:37:09.223Z,43.07
2023-04-30T08:39:37.680Z,44.03
2023-04-30T08:42:09.453Z,42.71
2023-04-30T08:44:39.773Z,42.89
2023-04-30T08:47:13.156Z,42.59
2023-04-30T08:49:41.722Z,44.94
2023-04-30T08:52:10.617Z,43.75
2023-04-30T08:54:39.444Z,44.25
2023-04-30T08:57:07.912Z,44.74
2023-04-30T08:59:46.204Z,41.06
2023-04-30T09:02:16.109Z,39.80
2023-04-30T09:04:44.721Z,42.23
2023-04-30T09:07:14.563Z,39.10
2023-04-30T09:09:43.255Z,37.93
2023-04-30T09:12:13.343Z,37.08
2023-04-30T09:14:41.905Z,31.90
2023-04-30T09:17:10.503Z,30.57
2023-04-30T09:19:40.547Z,31.70
2023-04-30T09:22:20.064Z,31.26
2023-04-30T09:24:49.497Z,32.96
2023-04-30T09:27:18.458Z,35.33
2023-04-30T09:29:47.792Z,36.04
2023-04-30T09:32:16.656Z,35.42
2023-04-30T09:34:46.896Z,34.38
2023-04-30T09:37:15.928Z,31.10
2023-04-30T09:39:48.348Z,30.08
2023-04-30T09:42:16.900Z,30.59
2023-04-30T09:44:45.365Z,29.96
2023-04-30T09:47:14.753Z,35.47
2023-04-30T09:49:44.779Z,30.34
2023-04-30T09:52:16.482Z,29.78
2023-04-30T09:54:45.897Z,32.40
2023-04-30T09:57:15.742Z,31.70
2023-04-30T09:59:46.058Z,30.45
2023-04-30T10:02:15.605Z,30.93
2023-04-30T10:04:45.420Z,29.46
2023-04-30T10:07:18.270Z,28.18
2023-04-30T10:09:51.031Z,27.87
2023-04-30T10:12:22.107Z,26.24
2023-04-30T10:14:53.815Z,24.56
2023-04-30T10:17:23.411Z,23.83
2023-04-30T10:19:53.464Z,28.91
2023-04-30T10:22:23.778Z,30.26
2023-04-30T10:24:53.824Z,31.53
2023-04-30T10:27:22.293Z,28.83
2023-04-30T10:29:51.643Z,33.37
2023-04-30T10:32:21.598Z,31.58
2023-04-30T10:34:53.531Z,29.83
2023-04-30T10:37:54.341Z,32.11
2023-04-30T10:40:22.921Z,31.55
2023-04-30T10:42:52.140Z,32.25
2023-04-30T10:45:21.457Z,29.72
2023-04-30T10:47:50.391Z,28.62
2023-04-30T10:50:20.518Z,28.77
2023-04-30T10:53:03.139Z,31.28
2023-04-30T10:55:31.944Z,33.83
2023-04-30T10:58:00.673Z,31.25
2023-04-30T11:00:30.064Z,30.82
2023-04-30T11:02:59.138Z,31.58
2023-04-30T11:05:35.647Z,34.18
2023-04-30T11:08:05.996Z,33.05
2023-04-30T11:10:40.924Z,29.78
2023-04-30T11:13:11.062Z,29.52
2023-04-30T11:15:41.753Z,30.53
2023-04-30T11:18:10.813Z,29.30
2023-04-30T11:20:41.753Z,32.17
2023-04-30T11:23:15.467Z,31.94
2023-04-30T11:25:46.718Z,31.35
2023-04-30T11:28:16.766Z,30.45
2023-04-30T11:30:52.426Z,31.95
2023-04-30T11:33:21.047Z,33.50
2023-04-30T11:35:52.324Z,33.24
2023-04-30T11:38:23.650Z,33.48
2023-04-30T11:40:52.095Z,33.73
2023-04-30T11:43:26.895Z,31.44
2023-04-30T11:46:06.523Z,34.20
2023-04-30T11:48:35.827Z,32.61
2023-04-30T11:51:04.841Z,28.02
2023-04-30T11:53:34.553Z,25.66
2023-04-30T11:56:06.371Z,27.29
2023-04-30T11:58:35.647Z,30.28
2023-04-30T12:01:04.011Z,31.78
2023-04-30T12:03:33.493Z,32.69
2023-04-30T12:06:02.616Z,31.29
2023-04-30T12:08:31.268Z,30.11
2023-04-30T12:11:01.072Z,31.57
2023-04-30T12:13:31.839Z,31.19
2023-04-30T12:16:00.871Z,31.63
2023-04-30T12:18:29.726Z,31.43
2023-04-30T12:21:12.625Z,28.89
2023-04-30T12:23:41.484Z,29.92
2023-04-30T12:26:19.342Z,29.69
2023-04-30T12:28:48.764Z,29.70
2023-04-30T12:31:18.438Z,30.06
2023-04-30T12:33:54.723Z,30.94
2023-04-30T12:36:23.262Z,31.42
2023-04-30T12:39:02.798Z,31.42
2023-04-30T12:41:32.913Z,30.18
2023-04-30T12:44:20.213Z,27.94
2023-04-30T12:46:49.138Z,28.14
2023-04-30T12:49:25.061Z,27.11
2023-04-30T12:51:53.827Z,30.64
2023-04-30T12:54:29.170Z,31.19
2023-04-30T12:57:03.470Z,29.08
2023-04-30T12:59:32.529Z,28.40
2023-04-30T13:02:07.959Z,27.28
2023-04-30T13:04:37.201Z,26.72
2023-04-30T13:07:05.688Z,27.79
2023-04-30T13:09:34.375Z,29.25
2023-04-30T13:12:04.662Z,29.16
2023-04-30T13:14:33.459Z,30.51
2023-04-30T13:17:04.997Z,28.85
2023-04-30T13:19:33.725Z,27.32
2023-04-30T13:22:02.520Z,25.76
2023-04-30T13:24:31.356Z,27.80
2023-04-30T13:27:00.483Z,28.25
2023-04-30T13:29:30.318Z,28.41
2023-04-30T13:31:59.236Z,27.23
2023-04-30T13:34:27.749Z,27.61
2023-04-30T13:36:56.450Z,26.56
2023-04-30T13:39:24.876Z,27.14
2023-04-30T13:41:53.358Z,28.08
2023-04-30T13:44:21.828Z,29.20
2023-04-30T13:46:51.684Z,26.57
2023-04-30T13:49:20.228Z,26.02
2023-04-30T13:51:48.676Z,26.31
2023-04-30T13:54:17.173Z,24.64
2023-04-30T13:56:45.816Z,28.84
2023-04-30T13:59:14.237Z,30.44
2023-04-30T14:01:42.716Z,30.86
2023-04-30T14:04:14.105Z,30.65
2023-04-30T14:06:45.408Z,31.60
2023-04-30T14:09:13.852Z,32.65
2023-04-30T14:11:42.517Z,34.21
2023-04-30T14:14:10.894Z,30.29
2023-04-30T14:16:39.422Z,28.76
2023-04-30T14:19:07.950Z,28.65
2023-04-30T14:21:38.094Z,29.46
2023-04-30T14:24:07.692Z,29.33
2023-04-30T14:26:36.665Z,30.56
2023-04-30T14:29:05.192Z,29.74
2023-04-30T14:31:33.782Z,30.56
2023-04-30T14:34:02.154Z,31.72
2023-04-30T14:36:30.680Z,32.60
2023-04-30T14:39:00.665Z,32.03
2023-04-30T14:41:29.279Z,32.50
2023-04-30T14:43:57.759Z,33.79
2023-04-30T14:46:26.520Z,33.94
2023-04-30T14:48:55.375Z,32.53
2023-04-30T14:51:25.862Z,31.13
2023-04-30T14:53:57.906Z,33.70
2023-04-30T14:56:29.555Z,34.86
2023-04-30T14:58:58.035Z,34.47
2023-04-30T15:01:28.496Z,35.10
2023-04-30T15:03:57.444Z,36.95
2023-04-30T15:06:26.378Z,39.07
2023-04-30T15:08:54.761Z,39.52
2023-04-30T15:11:24.229Z,38.13
2023-04-30T15:13:54.583Z,38.16
2023-04-30T15:16:23.281Z,39.76
2023-04-30T15:18:51.999Z,40.27
2023-04-30T15:21:20.447Z,39.84
2023-04-30T15:23:49.800Z,40.43
2023-04-30T15:26:18.242Z,39.46
2023-04-30T15:28:46.870Z,39.03
2023-04-30T15:31:17.130Z,39.84
2023-04-30T15:33:45.628Z,40.98
2023-04-30T15:36:14.284Z,40.24
2023-04-30T15:38:42.769Z,40.98
2023-04-30T15:41:11.466Z,42.14
2023-04-30T15:43:39.858Z,41.20
2023-04-30T15:46:08.642Z,42.46
2023-04-30T15:48:38.646Z,42.96
2023-04-30T15:51:07.442Z,42.68
2023-04-30T15:53:36.303Z,41.98
2023-04-30T15:56:05.525Z,41.37
2023-04-30T15:58:34.368Z,41.59
2023-04-30T16:01:03.150Z,42.02
2023-04-30T16:03:32.358Z,41.21
2023-04-30T16:06:02.841Z,41.39
2023-04-30T16:08:31.502Z,41.70
2023-04-30T16:11:01.200Z,42.17
2023-04-30T16:13:29.713Z,41.55
2023-04-30T16:15:58.156Z,41.53
2023-04-30T16:18:26.762Z,42.00
2023-04-30T16:20:55.162Z,42.88
2023-04-30T16:23:24.910Z,42.34
2023-04-30T16:25:53.427Z,43.19
2023-04-30T16:28:23.369Z,44.33
2023-04-30T16:30:52.305Z,44.23
2023-04-30T16:33:21.669Z,45.37
2023-04-30T16:35:50.104Z,44.17
2023-04-30T16:38:19.049Z,44.12
2023-04-30T16:40:49.229Z,44.05
2023-04-30T16:43:17.719Z,45.17
2023-04-30T16:45:46.541Z,45.62
2023-04-30T16:48:14.995Z,46.21
2023-04-30T16:50:43.668Z,45.27
2023-04-30T16:53:13.662Z,45.61
2023-04-30T16:55:42.376Z,45.24
2023-04-30T16:58:12.825Z,45.00
2023-04-30T17:00:43.815Z,44.16
2023-04-30T17:03:12.859Z,44.67
2023-04-30T17:05:43.559Z,44.81
2023-04-30T17:08:12.320Z,44.89
2023-04-30T17:10:41.463Z,44.73
2023-04-30T17:13:14.936Z,44.78
2023-04-30T17:15:50.792Z,44.65
2023-04-30T17:18:20.842Z,45.29
2023-04-30T17:20:53.050Z,45.80
2023-04-30T17:23:22.558Z,46.18
2023-04-30T17:25:54.161Z,46.18
2023-04-30T17:28:24.460Z,46.40
2023-04-30T17:30:53.809Z,47.52
2023-04-30T17:33:22.694Z,47.66
2023-04-30T17:35:51.430Z,47.41
2023-04-30T17:38:20.517Z,47.73
2023-04-30T17:40:53.318Z,47.05
2023-04-30T17:43:25.981Z,47.85
2023-04-30T17:45:57.550Z,48.07
2023-04-30T17:48:26.629Z,48.05
2023-04-30T17:50:55.779Z,48.06
2023-04-30T17:53:24.723Z,48.34
2023-04-30T17:55:53.853Z,48.42
2023-04-30T17:58:22.965Z,48.66
2023-04-30T18:00:56.674Z,49.03
2023-04-30T18:03:26.317Z,49.73
2023-04-30T18:05:55.608Z,50.33
2023-04-30T18:08:24.277Z,50.94
2023-04-30T18:10:54.306Z,50.55
2023-04-30T18:13:23.094Z,50.65
2023-04-30T18:15:53.171Z,50.84
2023-04-30T18:18:24.314Z,51.36
2023-04-30T18:20:53.314Z,51.84
2023-04-30T18:23:22.640Z,52.18
2023-04-30T18:25:51.796Z,52.42
2023-04-30T18:28:20.720Z,52.56
2023-04-30T18:30:49.896Z,53.20
2023-04-30T18:33:20.054Z,53.47
2023-04-30T18:35:51.495Z,53.51
2023-04-30T18:38:20.718Z,53.78
2023-04-30T18:40:54.207Z,54.16
2023-04-30T18:43:23.386Z,54.62
2023-04-30T18:45:52.738Z,55.08
2023-04-30T18:48:23.882Z,55.17
2023-04-30T18:50:52.439Z,55.74
2023-04-30T18:53:21.483Z,55.78
2023-04-30T18:55:50.310Z,55.95
2023-04-30T18:58:19.666Z,56.29
2023-04-30T19:00:49.509Z,56.62
2023-04-30T19:03:18.194Z,56.75
2023-04-30T19:05:48.588Z,56.71
2023-04-30T19:08:17.595Z,57.31
2023-04-30T19:10:49.093Z,57.74
2023-04-30T19:13:18.582Z,58.15
2023-04-30T19:15:49.588Z,58.68
2023-04-30T19:18:18.024Z,58.67
2023-04-30T19:20:57.114Z,58.67
2023-04-30T19:23:25.588Z,58.66
2023-04-30T19:25:54.052Z,59.20
2023-04-30T19:28:22.702Z,58.89
2023-04-30T19:30:51.896Z,59.43
2023-04-30T19:33:21.531Z,59.49
2023-04-30T19:35:51.252Z,59.90
2023-04-30T19:38:22.577Z,59.92
2023-04-30T19:40:53.996Z,60.47
2023-04-30T19:43:24.231Z,61.19
2023-04-30T19:45:53.907Z,60.78
2023-04-30T19:48:22.836Z,61.15
2023-04-30T19:50:53.526Z,61.34
2023-04-30T19:53:31.763Z,61.24
2023-04-30T19:56:01.543Z,62.00
2023-04-30T19:58:30.534Z,62.06
2023-04-30T20:01:04.811Z,61.89
2023-04-30T20:03:37.129Z,61.88
2023-04-30T20:06:16.164Z,61.72
2023-04-30T20:08:47.234Z,62.11
2023-04-30T20:11:22.766Z,62.13
2023-04-30T20:13:55.685Z,62.70
2023-04-30T20:16:24.303Z,62.70
2023-04-30T20:18:52.795Z,62.78
2023-04-30T20:21:29.044Z,63.06
2023-04-30T20:24:00.507Z,63.00
2023-04-30T20:26:29.307Z,63.03
2023-04-30T20:28:58.116Z,63.04
2023-04-30T20:31:31.385Z,62.77
2023-04-30T20:34:00.663Z,63.15
2023-04-30T20:36:31.598Z,62.65
2023-04-30T20:39:01.602Z,62.58
2023-04-30T20:41:30.498Z,62.62
2023-04-30T20:44:00.048Z,63.00
2023-04-30T20:46:28.934Z,62.79
2023-04-30T20:49:02.456Z,63.06
2023-04-30T20:51:33.926Z,63.19
2023-04-30T20:54:11.367Z,63.00
2023-04-30T20:56:40.434Z,62.72
2023-04-30T20:59:08.977Z,63.16
2023-04-30T21:01:37.595Z,63.82
2023-04-30T21:04:06.818Z,63.53
2023-04-30T21:06:35.233Z,63.57
2023-04-30T21:09:06.202Z,63.83
2023-04-30T21:11:34.689Z,63.79
2023-04-30T21:14:03.010Z,64.47
2023-04-30T21:16:31.772Z,64.29
2023-04-30T21:19:00.844Z,64.34
2023-04-30T21:21:29.933Z,64.37
2023-04-30T21:24:00.933Z,64.67
2023-04-30T21:26:30.713Z,64.63
2023-04-30T21:28:59.185Z,65.05
2023-04-30T21:31:42.159Z,65.16
2023-04-30T21:34:10.735Z,64.95
2023-04-30T21:36:39.208Z,65.62
2023-04-30T21:39:07.663Z,65.74
2023-04-30T21:41:37.456Z,65.50
2023-04-30T21:44:06.004Z,65.44
2023-04-30T21:46:34.490Z,65.55
2023-04-30T21:49:02.996Z,65.11
2023-04-30T21:51:31.971Z,65.04
2023-04-30T21:54:00.286Z,65.10
2023-04-30T21:56:28.644Z,65.50
2023-04-30T21:58:58.761Z,65.64
2023-04-30T22:01:30.096Z,65.76
2023-04-30T22:03:58.960Z,65.82
2023-04-30T22:06:28.682Z,66.35
2023-04-30T22:08:57.521Z,66.30
2023-04-30T22:11:25.933Z,66.16
2023-04-30T22:14:15.987Z,66.48
2023-04-30T22:16:44.471Z,66.43
2023-04-30T22:19:12.900Z,66.33
2023-04-30T22:21:41.443Z,66.35
2023-04-30T22:24:09.986Z,66.43
2023-04-30T22:26:38.382Z,66.79
2023-04-30T22:29:06.949Z,66.82
2023-04-30T22:31:36.943Z,66.84
2023-04-30T22:34:06.694Z,67.42
2023-04-30T22:36:35.163Z,67.29
2023-04-30T22:39:04.051Z,67.06
2023-04-30T22:41:34.217Z,66.97
2023-04-30T22:44:03.008Z,67.15
2023-04-30T22:46:33.568Z,67.16
2023-04-30T22:49:03.656Z,67.31
2023-04-30T22:51:34.717Z,67.10
2023-04-30T22:54:03.605Z,67.04
2023-04-30T22:56:33.884Z,67.28
2023-04-30T22:59:02.468Z,66.96
2023-04-30T23:01:30.916Z,67.37
2023-04-30T23:03:59.467Z,67.03
2023-04-30T23:06:31.118Z,66.94
2023-04-30T23:09:00.173Z,66.93
2023-04-30T23:11:28.588Z,67.00
2023-04-30T23:13:57.165Z,67.13
2023-04-30T23:16:25.610Z,66.77
2023-04-30T23:18:54.008Z,66.34
2023-04-30T23:21:22.648Z,66.03
2023-04-30T23:23:52.652Z,66.12
2023-04-30T23:26:24.304Z,65.82
2023-04-30T23:28:53.450Z,65.69
2023-04-30T23:31:22.202Z,66.44
2023-04-30T23:33:50.956Z,66.07
2023-04-30T23:36:19.392Z,66.69
2023-04-30T23:38:48.074Z,66.25
2023-04-30T23:41:17.837Z,66.31
2023-04-30T23:43:46.133Z,66.41
2023-04-30T23:46:16.017Z,66.63
2023-04-30T23:48:44.441Z,66.58
2023-04-30T23:51:12.896Z,66.55
2023-04-30T23:53:41.527Z,66.86
2023-04-30T23:56:09.865Z,66.83
2023-04-30T23:58:39.554Z,66.56
